ROD SEARCH UCC SEARCH
ROAM Help
 


David B. Hooten, County Clerk
Oklahoma County, Oklahoma
 
 Advanced Search
 What is Phonetic Search?
Sort By : 

We Recommend using All Info when you want to see all party and legal information.

We Recommend using Party Info when you want to see all party information, but not additional legal information.

We Recommend using Legal Info when you want to see all legal information, but not additional party information.

We Recommend using Document Info only when searching by Instrument Number, Book or Page. Running searches by these fields and using this filter will allow you to see 1 document per row.


Mode: PC|Mobile|Tablet
Results: All Info | Party Info | Legal Info | Document Info
1 2 3 4 5 6 7 8 9 10 of 18527 Go »

To view Plats, Click Here


ROD Results 1 - 30 of 555810 for . (0.02 seconds)

Filters Applied


Index Type

Doc Type

Party Role


Date Recorded

Party Seq

Legal Seq

RoleFilter

Instrument #Date RecordedNameParty RoleDoc TypeOther NameBookPageLegacy NumberFirst ReferenceLegal DescriptionBriefcaseView ImageView Full Screen
197908545309/06/1979 12:00:00 AMMIDLAND MORTGAGE COGranteeMORTGAGESLENTZ BOBBY D ETUX460113781979085453LOT:10 BLK:5 SUB:WEST OAKS SEC 9
197908545309/06/1979 12:00:00 AMSLENTZ BOBBY D ETUXGrantorMORTGAGEMIDLAND MORTGAGE CO460113781979085453LOT:10 BLK:5 SUB:WEST OAKS SEC 9
197908577509/07/1979 12:00:00 AMEXCHANGE NATIONAL BANKGrantorRELEASE OF MORTGAGEHALL PAUL H ETUX460119821979085775SECT:17 TSHP:11N RANGE:2W Call1:1 Call3:SE4 Call4:NW4
197908545809/06/1979 12:00:00 AMWESTERN TRUST & SAVINGSGranteeMORTGAGEDROKE MURIEL ETUX460113911979085458LOT:9 BLK:4 SUB:CAMELOT ESTATES
197908577509/07/1979 12:00:00 AMHALL PAUL H ETUXGranteeRELEASE OF MORTGAGEEXCHANGE NATIONAL BANK460119821979085775SECT:17 TSHP:11N RANGE:2W Call1:1 Call3:SE4 Call4:NW4
197908578809/07/1979 12:00:00 AMDISTRICT COURT OKLAHOMA COUNTYGrantorDISCHARGEASKINS J B460119951979085788LOT:23 BLK:10 SUB:MILITARY
197908578809/07/1979 12:00:00 AMASKINS J BGranteeDISCHARGEDISTRICT COURT OKLAHOMA COUNTY460119951979085788LOT:23 BLK:10 SUB:MILITARY
197908568209/06/1979 12:00:00 AMCALHOUN CHRISTOPHER CGrantorWARRANTY DEEDGONZALEZ KELSEY ETAL460118061979085682Units/TR:11425B Sub:THE BARRINGTON
197908568209/06/1979 12:00:00 AMFAIR CURTISGranteeWARRANTY DEEDCALHOUN CHRISTOPHER C460118061979085682Units/TR:11425B Sub:THE BARRINGTON
197908568209/06/1979 12:00:00 AMALLEN RICHARD TGranteeWARRANTY DEEDCALHOUN CHRISTOPHER C460118061979085682Units/TR:11425B Sub:THE BARRINGTON
197908578809/07/1979 12:00:00 AMDISTRICT COURT OKLAHOMA COUNTYGrantorDISCHARGEASKINS J B460119951979085788LOT:24 BLK:10 SUB:MILITARY
197908568309/06/1979 12:00:00 AMALLEN RICHARD TGranteeWARRANTY DEEDCALHOUN CHRISTOPHER C460118091979085683Units/TR:11317B Sub:THE BARRINGTON
197908578809/07/1979 12:00:00 AMASKINS J BGranteeDISCHARGEDISTRICT COURT OKLAHOMA COUNTY460119951979085788LOT:24 BLK:10 SUB:MILITARY
197908578809/07/1979 12:00:00 AMDISTRICT COURT OKLAHOMA COUNTYGrantorDISCHARGEASKINS J B460119951979085788LOT:20 BLK:10 SUB:MILITARY
197908578809/07/1979 12:00:00 AMASKINS J BGranteeDISCHARGEDISTRICT COURT OKLAHOMA COUNTY460119951979085788LOT:20 BLK:10 SUB:MILITARY
197908568309/06/1979 12:00:00 AMFAIR CURTISGranteeWARRANTY DEEDCALHOUN CHRISTOPHER C460118091979085683Units/TR:11317B Sub:THE BARRINGTON
197908568309/06/1979 12:00:00 AMCALHOUN CHRISTOPHER CGrantorWARRANTY DEEDGONZALEZ KELSEY ETAL460118091979085683Units/TR:11317B Sub:THE BARRINGTON
197908568309/06/1979 12:00:00 AMGONZALEZ KELSEY ETALGranteeWARRANTY DEEDCALHOUN CHRISTOPHER C460118091979085683Units/TR:11317B Sub:THE BARRINGTON
197908578809/07/1979 12:00:00 AMDISTRICT COURT OKLAHOMA COUNTYGrantorDISCHARGEASKINS J B460119951979085788LOT:21 BLK:10 SUB:MILITARY
197908578809/07/1979 12:00:00 AMASKINS J BGranteeDISCHARGEDISTRICT COURT OKLAHOMA COUNTY460119951979085788LOT:21 BLK:10 SUB:MILITARY
197908546009/06/1979 12:00:00 AMWESTERN TRUST & SAVINGSGranteeMORTGAGEKIRKPATRICK GLENN H460113951979085460LOT:6 BLK:2 SUB:SOUTH PARK TO EDMOND
197908584609/07/1979 12:00:00 AMFOUNDERS BANK & TRUST COGranteeMORTGAGEHENRY GARY MICHAEL ETAL4602921979085846LOT:15 BLK:13 SUB:BURKE NORTHRIDGE MANOR
197908578809/07/1979 12:00:00 AMASKINS J BGranteeDISCHARGEDISTRICT COURT OKLAHOMA COUNTY460119951979085788LOT:22 BLK:10 SUB:MILITARY
197908584609/07/1979 12:00:00 AMFOUNDERS BANK & TRUST COGranteeMORTGAGEHENRY GARY MICHAEL ETAL4602921979085846LOT:16 BLK:13 SUB:BURKE NORTHRIDGE MANOR
197908593409/07/1979 12:00:00 AMSTATE DEPARTMENT OF SOCIAL & REHABILATION SERVICESGrantorHOSPITAL LIENNELSON MICHAEL K ETAL46022311979085934
197908546009/06/1979 12:00:00 AMWESTERN TRUST & SAVINGSGranteeMORTGAGEKIRKPATRICK GLENN H460113951979085460LOT:7 BLK:2 SUB:SOUTH PARK TO EDMOND
197908594709/07/1979 12:00:00 AMPOAG FLOYD L SRGrantorMORTGAGEWESTERN TRUST & SAVINGS46022661979085947LOT:19 BLK:1 SUB:HILLDALE 3RD
197908594709/07/1979 12:00:00 AMWESTERN TRUST & SAVINGSGranteeMORTGAGEPOAG FLOYD L SR46022661979085947LOT:19 BLK:1 SUB:HILLDALE 3RD
197908584609/07/1979 12:00:00 AMHENRY GARY MICHAEL ETALGrantorMORTGAGEFOUNDERS BANK & TRUST CO4602921979085846LOT:16 BLK:13 SUB:BURKE NORTHRIDGE MANOR
197908585109/07/1979 12:00:00 AMBETHANY NAZARENE COLLEGEGranteeWARRANTY DEEDHALL VEDA M4602971979085851LOT:1 BLK:3 SUB:NORTH SIDE

Clicking on the Columns below will only sort the current page.

1 2 3 4 5 6 7 8 9 10 of 18527 Go »


Copyright © Granicus, INC.
Results per page :